sensor_id;sensor_type;location;lat;lon;timestamp;P1;durP1;ratioP1;P2;durP2;ratioP2
29688;SDS011;16600;47.444;8.334;2023-02-28T00:00:08;12.18;;;5.28;;
29688;SDS011;16600;47.444;8.334;2023-02-28T00:02:39;10.40;;;6.22;;
29688;SDS011;16600;47.444;8.334;2023-02-28T00:05:06;12.40;;;6.32;;
29688;SDS011;16600;47.444;8.334;2023-02-28T00:07:32;8.75;;;6.00;;
29688;SDS011;16600;47.444;8.334;2023-02-28T00:09:58;7.18;;;5.85;;
29688;SDS011;16600;47.444;8.334;2023-02-28T00:14:50;8.63;;;5.90;;
29688;SDS011;16600;47.444;8.334;2023-02-28T00:17:16;7.20;;;5.72;;
29688;SDS011;16600;47.444;8.334;2023-02-28T00:19:50;6.22;;;5.63;;
29688;SDS011;16600;47.444;8.334;2023-02-28T00:22:17;6.20;;;5.60;;
29688;SDS011;16600;47.444;8.334;2023-02-28T00:24:43;12.77;;;6.20;;
29688;SDS011;16600;47.444;8.334;2023-02-28T00:27:09;7.75;;;6.35;;
29688;SDS011;16600;47.444;8.334;2023-02-28T00:29:36;7.68;;;6.00;;
29688;SDS011;16600;47.444;8.334;2023-02-28T00:32:02;8.18;;;6.20;;
29688;SDS011;16600;47.444;8.334;2023-02-28T00:34:29;6.72;;;5.68;;
29688;SDS011;16600;47.444;8.334;2023-02-28T00:36:55;7.13;;;6.13;;
29688;SDS011;16600;47.444;8.334;2023-02-28T00:39:21;7.35;;;6.57;;
29688;SDS011;16600;47.444;8.334;2023-02-28T00:41:48;8.25;;;6.25;;
29688;SDS011;16600;47.444;8.334;2023-02-28T00:44:14;7.07;;;6.03;;
29688;SDS011;16600;47.444;8.334;2023-02-28T00:46:40;7.10;;;6.40;;
29688;SDS011;16600;47.444;8.334;2023-02-28T00:49:06;6.82;;;6.20;;
29688;SDS011;16600;47.444;8.334;2023-02-28T00:51:34;10.15;;;7.28;;
29688;SDS011;16600;47.444;8.334;2023-02-28T00:54:01;8.50;;;6.90;;
29688;SDS011;16600;47.444;8.334;2023-02-28T00:56:27;7.85;;;6.63;;
29688;SDS011;16600;47.444;8.334;2023-02-28T01:01:19;9.15;;;6.75;;
29688;SDS011;16600;47.444;8.334;2023-02-28T01:03:45;8.32;;;6.53;;
29688;SDS011;16600;47.444;8.334;2023-02-28T01:06:11;7.88;;;7.00;;
29688;SDS011;16600;47.444;8.334;2023-02-28T01:08:37;8.15;;;6.28;;
29688;SDS011;16600;47.444;8.334;2023-02-28T01:11:07;7.45;;;6.50;;
29688;SDS011;16600;47.444;8.334;2023-02-28T01:13:34;8.88;;;6.38;;
29688;SDS011;16600;47.444;8.334;2023-02-28T01:16:00;8.13;;;6.47;;
29688;SDS011;16600;47.444;8.334;2023-02-28T01:18:26;9.25;;;6.80;;
29688;SDS011;16600;47.444;8.334;2023-02-28T01:20:52;10.90;;;6.53;;
29688;SDS011;16600;47.444;8.334;2023-02-28T01:23:19;9.80;;;7.40;;
29688;SDS011;16600;47.444;8.334;2023-02-28T01:25:45;7.47;;;6.78;;
29688;SDS011;16600;47.444;8.334;2023-02-28T01:28:12;8.60;;;7.13;;
29688;SDS011;16600;47.444;8.334;2023-02-28T01:30:38;7.68;;;6.60;;
29688;SDS011;16600;47.444;8.334;2023-02-28T01:33:05;7.78;;;6.97;;
29688;SDS011;16600;47.444;8.334;2023-02-28T01:35:34;8.68;;;7.28;;
29688;SDS011;16600;47.444;8.334;2023-02-28T01:38:01;8.52;;;6.90;;
29688;SDS011;16600;47.444;8.334;2023-02-28T01:40:27;9.90;;;7.22;;
29688;SDS011;16600;47.444;8.334;2023-02-28T01:42:53;8.30;;;6.47;;
29688;SDS011;16600;47.444;8.334;2023-02-28T01:47:46;8.48;;;7.68;;
29688;SDS011;16600;47.444;8.334;2023-02-28T01:50:16;9.60;;;7.20;;
29688;SDS011;16600;47.444;8.334;2023-02-28T01:52:43;8.82;;;7.80;;
29688;SDS011;16600;47.444;8.334;2023-02-28T01:55:12;8.43;;;7.43;;
29688;SDS011;16600;47.444;8.334;2023-02-28T01:57:40;9.50;;;7.63;;
29688;SDS011;16600;47.444;8.334;2023-02-28T02:00:18;9.52;;;6.95;;
29688;SDS011;16600;47.444;8.334;2023-02-28T02:02:47;11.20;;;8.30;;
29688;SDS011;16600;47.444;8.334;2023-02-28T02:05:18;9.10;;;7.90;;
29688;SDS011;16600;47.444;8.334;2023-02-28T02:07:45;9.85;;;7.60;;
29688;SDS011;16600;47.444;8.334;2023-02-28T02:10:14;15.70;;;8.25;;
29688;SDS011;16600;47.444;8.334;2023-02-28T02:12:50;8.88;;;7.93;;
29688;SDS011;16600;47.444;8.334;2023-02-28T02:15:29;8.57;;;7.70;;
29688;SDS011;16600;47.444;8.334;2023-02-28T02:17:57;12.18;;;8.63;;
29688;SDS011;16600;47.444;8.334;2023-02-28T02:20:32;8.63;;;7.53;;
29688;SDS011;16600;47.444;8.334;2023-02-28T02:25:56;11.82;;;8.68;;
29688;SDS011;16600;47.444;8.334;2023-02-28T02:36:09;8.57;;;6.70;;
29688;SDS011;16600;47.444;8.334;2023-02-28T02:41:17;9.52;;;7.97;;
29688;SDS011;16600;47.444;8.334;2023-02-28T02:48:37;9.80;;;8.50;;
29688;SDS011;16600;47.444;8.334;2023-02-28T02:51:06;9.25;;;7.35;;
29688;SDS011;16600;47.444;8.334;2023-02-28T02:53:49;10.18;;;8.30;;
29688;SDS011;16600;47.444;8.334;2023-02-28T02:56:21;9.57;;;8.15;;
29688;SDS011;16600;47.444;8.334;2023-02-28T02:58:49;10.68;;;7.38;;
29688;SDS011;16600;47.444;8.334;2023-02-28T03:01:20;15.95;;;8.25;;
29688;SDS011;16600;47.444;8.334;2023-02-28T03:03:55;11.13;;;8.55;;
29688;SDS011;16600;47.444;8.334;2023-02-28T03:06:23;8.57;;;7.68;;
29688;SDS011;16600;47.444;8.334;2023-02-28T03:08:49;10.18;;;7.88;;
29688;SDS011;16600;47.444;8.334;2023-02-28T03:11:15;14.93;;;8.30;;
29688;SDS011;16600;47.444;8.334;2023-02-28T03:13:50;8.93;;;7.55;;
29688;SDS011;16600;47.444;8.334;2023-02-28T03:21:37;13.27;;;8.57;;
29688;SDS011;16600;47.444;8.334;2023-02-28T03:26:41;10.68;;;8.65;;
29688;SDS011;16600;47.444;8.334;2023-02-28T03:29:22;9.10;;;8.02;;
29688;SDS011;16600;47.444;8.334;2023-02-28T03:31:54;8.80;;;7.65;;
29688;SDS011;16600;47.444;8.334;2023-02-28T03:34:28;8.75;;;7.70;;
29688;SDS011;16600;47.444;8.334;2023-02-28T03:36:57;7.95;;;7.18;;
29688;SDS011;16600;47.444;8.334;2023-02-28T03:39:34;8.18;;;7.38;;
29688;SDS011;16600;47.444;8.334;2023-02-28T03:42:02;8.48;;;7.05;;
29688;SDS011;16600;47.444;8.334;2023-02-28T03:44:35;8.25;;;7.40;;
29688;SDS011;16600;47.444;8.334;2023-02-28T03:47:05;8.48;;;7.15;;
29688;SDS011;16600;47.444;8.334;2023-02-28T03:49:36;8.27;;;7.50;;
29688;SDS011;16600;47.444;8.334;2023-02-28T03:52:09;9.15;;;8.10;;
29688;SDS011;16600;47.444;8.334;2023-02-28T03:54:43;9.23;;;7.05;;
29688;SDS011;16600;47.444;8.334;2023-02-28T03:57:15;8.13;;;7.30;;
29688;SDS011;16600;47.444;8.334;2023-02-28T03:59:45;9.77;;;7.57;;
29688;SDS011;16600;47.444;8.334;2023-02-28T04:02:12;12.20;;;7.07;;
29688;SDS011;16600;47.444;8.334;2023-02-28T04:04:39;7.95;;;7.07;;
29688;SDS011;16600;47.444;8.334;2023-02-28T04:07:10;7.22;;;6.43;;
29688;SDS011;16600;47.444;8.334;2023-02-28T04:09:39;7.90;;;7.07;;
29688;SDS011;16600;47.444;8.334;2023-02-28T04:14:31;10.10;;;6.45;;
29688;SDS011;16600;47.444;8.334;2023-02-28T04:16:57;7.25;;;6.25;;
29688;SDS011;16600;47.444;8.334;2023-02-28T04:19:23;9.43;;;7.30;;
29688;SDS011;16600;47.444;8.334;2023-02-28T04:21:50;10.52;;;7.95;;
29688;SDS011;16600;47.444;8.334;2023-02-28T04:24:21;11.27;;;7.68;;
29688;SDS011;16600;47.444;8.334;2023-02-28T04:26:48;8.30;;;6.57;;
29688;SDS011;16600;47.444;8.334;2023-02-28T04:29:18;12.02;;;7.53;;
29688;SDS011;16600;47.444;8.334;2023-02-28T04:31:44;8.98;;;7.45;;
29688;SDS011;16600;47.444;8.334;2023-02-28T04:36:37;8.57;;;6.37;;
29688;SDS011;16600;47.444;8.334;2023-02-28T04:39:03;7.22;;;6.50;;
29688;SDS011;16600;47.444;8.334;2023-02-28T04:41:29;6.82;;;6.03;;
29688;SDS011;16600;47.444;8.334;2023-02-28T04:43:55;10.05;;;7.18;;
29688;SDS011;16600;47.444;8.334;2023-02-28T04:46:22;8.48;;;7.03;;
29688;SDS011;16600;47.444;8.334;2023-02-28T04:48:48;6.97;;;6.20;;
29688;SDS011;16600;47.444;8.334;2023-02-28T04:53:40;13.50;;;7.03;;
29688;SDS011;16600;47.444;8.334;2023-02-28T04:56:07;7.05;;;6.38;;
29688;SDS011;16600;47.444;8.334;2023-02-28T04:58:33;6.60;;;6.00;;
29688;SDS011;16600;47.444;8.334;2023-02-28T05:03:13;12.67;;;7.40;;
29688;SDS011;16600;47.444;8.334;2023-02-28T05:05:39;10.50;;;6.90;;
29688;SDS011;16600;47.444;8.334;2023-02-28T05:10:31;7.63;;;6.57;;
29688;SDS011;16600;47.444;8.334;2023-02-28T05:12:57;10.65;;;6.93;;
29688;SDS011;16600;47.444;8.334;2023-02-28T05:15:24;14.02;;;7.28;;
29688;SDS011;16600;47.444;8.334;2023-02-28T05:17:50;7.20;;;6.47;;
29688;SDS011;16600;47.444;8.334;2023-02-28T05:20:19;9.65;;;6.50;;
29688;SDS011;16600;47.444;8.334;2023-02-28T05:22:46;7.60;;;6.78;;
29688;SDS011;16600;47.444;8.334;2023-02-28T05:25:19;12.88;;;6.68;;
29688;SDS011;16600;47.444;8.334;2023-02-28T05:27:49;9.32;;;6.82;;
29688;SDS011;16600;47.444;8.334;2023-02-28T05:30:21;7.85;;;6.38;;
29688;SDS011;16600;47.444;8.334;2023-02-28T05:35:12;7.13;;;6.45;;
29688;SDS011;16600;47.444;8.334;2023-02-28T05:37:39;9.38;;;5.85;;
29688;SDS011;16600;47.444;8.334;2023-02-28T05:40:05;7.40;;;6.40;;
29688;SDS011;16600;47.444;8.334;2023-02-28T05:42:33;8.15;;;6.93;;
29688;SDS011;16600;47.444;8.334;2023-02-28T05:45:02;7.45;;;6.10;;
29688;SDS011;16600;47.444;8.334;2023-02-28T05:47:35;10.38;;;7.07;;
29688;SDS011;16600;47.444;8.334;2023-02-28T05:50:02;9.43;;;6.65;;
29688;SDS011;16600;47.444;8.334;2023-02-28T05:52:34;8.68;;;6.70;;
29688;SDS011;16600;47.444;8.334;2023-02-28T05:55:00;7.43;;;6.70;;
29688;SDS011;16600;47.444;8.334;2023-02-28T05:57:29;11.15;;;6.53;;
29688;SDS011;16600;47.444;8.334;2023-02-28T05:59:55;8.85;;;6.18;;
29688;SDS011;16600;47.444;8.334;2023-02-28T06:02:21;11.40;;;6.78;;
29688;SDS011;16600;47.444;8.334;2023-02-28T06:04:48;11.07;;;6.80;;
29688;SDS011;16600;47.444;8.334;2023-02-28T06:07:14;10.65;;;6.90;;
29688;SDS011;16600;47.444;8.334;2023-02-28T06:09:43;6.95;;;6.30;;
29688;SDS011;16600;47.444;8.334;2023-02-28T06:12:09;7.45;;;6.43;;
29688;SDS011;16600;47.444;8.334;2023-02-28T06:14:39;8.80;;;6.43;;
29688;SDS011;16600;47.444;8.334;2023-02-28T06:17:05;6.97;;;6.25;;
29688;SDS011;16600;47.444;8.334;2023-02-28T06:19:31;9.30;;;6.20;;
29688;SDS011;16600;47.444;8.334;2023-02-28T06:21:57;7.35;;;6.50;;
29688;SDS011;16600;47.444;8.334;2023-02-28T06:24:25;8.05;;;6.30;;
29688;SDS011;16600;47.444;8.334;2023-02-28T06:26:53;7.35;;;6.55;;
29688;SDS011;16600;47.444;8.334;2023-02-28T06:29:19;7.30;;;6.30;;
29688;SDS011;16600;47.444;8.334;2023-02-28T06:31:45;6.85;;;6.15;;
29688;SDS011;16600;47.444;8.334;2023-02-28T06:36:37;12.93;;;6.15;;
29688;SDS011;16600;47.444;8.334;2023-02-28T06:39:04;10.13;;;6.63;;
29688;SDS011;16600;47.444;8.334;2023-02-28T06:41:30;12.40;;;6.68;;
29688;SDS011;16600;47.444;8.334;2023-02-28T06:43:56;7.22;;;6.28;;
29688;SDS011;16600;47.444;8.334;2023-02-28T06:46:22;9.57;;;6.95;;
29688;SDS011;16600;47.444;8.334;2023-02-28T06:48:49;7.90;;;6.57;;
29688;SDS011;16600;47.444;8.334;2023-02-28T06:51:16;7.22;;;6.35;;
29688;SDS011;16600;47.444;8.334;2023-02-28T06:53:43;8.32;;;6.95;;
29688;SDS011;16600;47.444;8.334;2023-02-28T06:56:13;8.93;;;6.47;;
29688;SDS011;16600;47.444;8.334;2023-02-28T06:58:39;10.30;;;6.40;;
29688;SDS011;16600;47.444;8.334;2023-02-28T07:01:06;9.35;;;6.20;;
29688;SDS011;16600;47.444;8.334;2023-02-28T07:03:32;8.13;;;6.60;;
29688;SDS011;16600;47.444;8.334;2023-02-28T07:05:59;9.50;;;7.70;;
29688;SDS011;16600;47.444;8.334;2023-02-28T07:10:54;9.43;;;6.20;;
29688;SDS011;16600;47.444;8.334;2023-02-28T07:13:20;14.27;;;7.22;;
29688;SDS011;16600;47.444;8.334;2023-02-28T07:15:56;9.63;;;7.25;;
29688;SDS011;16600;47.444;8.334;2023-02-28T07:18:23;9.73;;;7.30;;
29688;SDS011;16600;47.444;8.334;2023-02-28T07:20:49;7.43;;;6.72;;
29688;SDS011;16600;47.444;8.334;2023-02-28T07:23:15;7.93;;;6.90;;
29688;SDS011;16600;47.444;8.334;2023-02-28T07:25:41;15.20;;;7.55;;
29688;SDS011;16600;47.444;8.334;2023-02-28T07:28:07;8.48;;;6.43;;
29688;SDS011;16600;47.444;8.334;2023-02-28T07:30:34;9.00;;;7.50;;
29688;SDS011;16600;47.444;8.334;2023-02-28T07:35:25;8.63;;;7.75;;
29688;SDS011;16600;47.444;8.334;2023-02-28T07:40:17;11.82;;;8.30;;
29688;SDS011;16600;47.444;8.334;2023-02-28T07:42:43;11.82;;;7.55;;
29688;SDS011;16600;47.444;8.334;2023-02-28T07:45:10;10.68;;;7.25;;
29688;SDS011;16600;47.444;8.334;2023-02-28T07:47:39;11.15;;;7.82;;
29688;SDS011;16600;47.444;8.334;2023-02-28T07:50:05;8.40;;;7.10;;
29688;SDS011;16600;47.444;8.334;2023-02-28T07:52:32;8.07;;;7.25;;
29688;SDS011;16600;47.444;8.334;2023-02-28T07:54:58;11.82;;;8.27;;
29688;SDS011;16600;47.444;8.334;2023-02-28T07:57:24;8.27;;;7.45;;
29688;SDS011;16600;47.444;8.334;2023-02-28T07:59:51;9.82;;;8.10;;
29688;SDS011;16600;47.444;8.334;2023-02-28T08:02:20;11.85;;;8.65;;
29688;SDS011;16600;47.444;8.334;2023-02-28T08:04:46;14.30;;;7.45;;
29688;SDS011;16600;47.444;8.334;2023-02-28T08:07:13;11.60;;;7.65;;
29688;SDS011;16600;47.444;8.334;2023-02-28T08:09:40;9.57;;;8.55;;
29688;SDS011;16600;47.444;8.334;2023-02-28T08:12:07;9.35;;;8.40;;
29688;SDS011;16600;47.444;8.334;2023-02-28T08:14:33;11.27;;;9.70;;
29688;SDS011;16600;47.444;8.334;2023-02-28T08:16:59;13.30;;;10.05;;
29688;SDS011;16600;47.444;8.334;2023-02-28T08:19:26;11.50;;;8.73;;
29688;SDS011;16600;47.444;8.334;2023-02-28T08:21:52;12.52;;;9.90;;
29688;SDS011;16600;47.444;8.334;2023-02-28T08:24:18;20.65;;;10.57;;
29688;SDS011;16600;47.444;8.334;2023-02-28T08:26:44;19.33;;;10.20;;
29688;SDS011;16600;47.444;8.334;2023-02-28T08:29:13;14.02;;;9.35;;
29688;SDS011;16600;47.444;8.334;2023-02-28T08:31:40;11.18;;;8.93;;
29688;SDS011;16600;47.444;8.334;2023-02-28T08:34:07;10.50;;;8.73;;
29688;SDS011;16600;47.444;8.334;2023-02-28T08:36:34;13.77;;;10.75;;
29688;SDS011;16600;47.444;8.334;2023-02-28T08:39:00;14.30;;;11.95;;
29688;SDS011;16600;47.444;8.334;2023-02-28T08:41:26;17.25;;;12.90;;
29688;SDS011;16600;47.444;8.334;2023-02-28T08:43:55;13.85;;;11.48;;
29688;SDS011;16600;47.444;8.334;2023-02-28T08:46:22;14.60;;;10.57;;
29688;SDS011;16600;47.444;8.334;2023-02-28T08:48:51;12.43;;;9.85;;
29688;SDS011;16600;47.444;8.334;2023-02-28T08:51:17;17.95;;;9.85;;
29688;SDS011;16600;47.444;8.334;2023-02-28T08:53:55;13.55;;;9.18;;
29688;SDS011;16600;47.444;8.334;2023-02-28T08:56:22;11.25;;;9.35;;
29688;SDS011;16600;47.444;8.334;2023-02-28T08:58:48;10.68;;;8.82;;
29688;SDS011;16600;47.444;8.334;2023-02-28T09:01:18;23.92;;;15.07;;
29688;SDS011;16600;47.444;8.334;2023-02-28T09:03:45;21.63;;;13.63;;
29688;SDS011;16600;47.444;8.334;2023-02-28T09:06:12;13.75;;;11.07;;
29688;SDS011;16600;47.444;8.334;2023-02-28T09:08:38;12.18;;;9.52;;
29688;SDS011;16600;47.444;8.334;2023-02-28T09:11:04;12.10;;;9.23;;
29688;SDS011;16600;47.444;8.334;2023-02-28T09:15:58;10.43;;;9.13;;
29688;SDS011;16600;47.444;8.334;2023-02-28T09:18:24;13.50;;;9.68;;
29688;SDS011;16600;47.444;8.334;2023-02-28T09:20:54;10.95;;;8.75;;
29688;SDS011;16600;47.444;8.334;2023-02-28T09:23:21;11.40;;;8.75;;
29688;SDS011;16600;47.444;8.334;2023-02-28T09:25:48;14.20;;;9.32;;
29688;SDS011;16600;47.444;8.334;2023-02-28T09:28:14;9.55;;;8.65;;
29688;SDS011;16600;47.444;8.334;2023-02-28T09:30:49;12.98;;;9.30;;
29688;SDS011;16600;47.444;8.334;2023-02-28T09:33:16;9.68;;;8.50;;
29688;SDS011;16600;47.444;8.334;2023-02-28T09:35:46;12.93;;;8.38;;
29688;SDS011;16600;47.444;8.334;2023-02-28T09:38:12;10.52;;;8.65;;
29688;SDS011;16600;47.444;8.334;2023-02-28T09:40:46;9.27;;;8.30;;
29688;SDS011;16600;47.444;8.334;2023-02-28T09:43:13;9.82;;;8.82;;
29688;SDS011;16600;47.444;8.334;2023-02-28T09:45:41;8.85;;;8.05;;
29688;SDS011;16600;47.444;8.334;2023-02-28T09:48:10;10.30;;;8.73;;
29688;SDS011;16600;47.444;8.334;2023-02-28T09:50:38;9.27;;;7.75;;
29688;SDS011;16600;47.444;8.334;2023-02-28T09:53:13;10.10;;;8.18;;
29688;SDS011;16600;47.444;8.334;2023-02-28T09:55:48;13.15;;;8.25;;
29688;SDS011;16600;47.444;8.334;2023-02-28T09:58:23;11.05;;;8.93;;
29688;SDS011;16600;47.444;8.334;2023-02-28T10:00:56;19.67;;;9.45;;
29688;SDS011;16600;47.444;8.334;2023-02-28T10:03:28;9.25;;;7.97;;
29688;SDS011;16600;47.444;8.334;2023-02-28T10:05:58;8.43;;;7.63;;
29688;SDS011;16600;47.444;8.334;2023-02-28T10:08:34;10.02;;;8.32;;
29688;SDS011;16600;47.444;8.334;2023-02-28T10:11:07;9.85;;;8.82;;
29688;SDS011;16600;47.444;8.334;2023-02-28T10:13:40;12.27;;;9.93;;
29688;SDS011;16600;47.444;8.334;2023-02-28T10:16:16;10.73;;;8.93;;
29688;SDS011;16600;47.444;8.334;2023-02-28T10:18:50;12.27;;;10.02;;
29688;SDS011;16600;47.444;8.334;2023-02-28T10:21:22;11.48;;;9.73;;
29688;SDS011;16600;47.444;8.334;2023-02-28T10:23:50;12.05;;;8.85;;
29688;SDS011;16600;47.444;8.334;2023-02-28T10:26:21;10.55;;;9.45;;
29688;SDS011;16600;47.444;8.334;2023-02-28T10:28:49;9.02;;;8.13;;
29688;SDS011;16600;47.444;8.334;2023-02-28T10:31:18;15.55;;;10.10;;
29688;SDS011;16600;47.444;8.334;2023-02-28T10:33:45;11.07;;;9.20;;
29688;SDS011;16600;47.444;8.334;2023-02-28T10:38:37;10.30;;;9.25;;
29688;SDS011;16600;47.444;8.334;2023-02-28T10:41:05;10.40;;;9.45;;
29688;SDS011;16600;47.444;8.334;2023-02-28T10:43:31;14.93;;;9.07;;
29688;SDS011;16600;47.444;8.334;2023-02-28T10:48:36;11.95;;;9.50;;
29688;SDS011;16600;47.444;8.334;2023-02-28T10:51:16;11.27;;;9.82;;
29688;SDS011;16600;47.444;8.334;2023-02-28T10:53:51;10.60;;;9.20;;
29688;SDS011;16600;47.444;8.334;2023-02-28T10:56:22;11.50;;;9.55;;
29688;SDS011;16600;47.444;8.334;2023-02-28T10:58:53;11.88;;;9.70;;
29688;SDS011;16600;47.444;8.334;2023-02-28T11:03:00;10.70;;;9.70;;
29688;SDS011;16600;47.444;8.334;2023-02-28T11:05:28;10.57;;;9.57;;
29688;SDS011;16600;47.444;8.334;2023-02-28T11:07:55;12.20;;;9.93;;
29688;SDS011;16600;47.444;8.334;2023-02-28T11:10:22;11.45;;;10.35;;
29688;SDS011;16600;47.444;8.334;2023-02-28T11:12:53;15.48;;;9.88;;
29688;SDS011;16600;47.444;8.334;2023-02-28T11:15:27;9.85;;;8.75;;
29688;SDS011;16600;47.444;8.334;2023-02-28T11:20:40;13.82;;;10.55;;
29688;SDS011;16600;47.444;8.334;2023-02-28T11:23:09;13.05;;;9.18;;
29688;SDS011;16600;47.444;8.334;2023-02-28T11:25:38;14.35;;;10.05;;
29688;SDS011;16600;47.444;8.334;2023-02-28T11:28:05;12.68;;;9.50;;
29688;SDS011;16600;47.444;8.334;2023-02-28T11:30:33;11.57;;;10.10;;
29688;SDS011;16600;47.444;8.334;2023-02-28T11:33:00;11.15;;;9.32;;
29688;SDS011;16600;47.444;8.334;2023-02-28T11:35:28;14.50;;;10.40;;
29688;SDS011;16600;47.444;8.334;2023-02-28T11:37:59;13.90;;;9.90;;
29688;SDS011;16600;47.444;8.334;2023-02-28T11:40:48;11.82;;;10.43;;
29688;SDS011;16600;47.444;8.334;2023-02-28T11:51:34;11.90;;;10.80;;
29688;SDS011;16600;47.444;8.334;2023-02-28T11:56:46;9.85;;;8.98;;
29688;SDS011;16600;47.444;8.334;2023-02-28T12:04:32;14.30;;;9.95;;
29688;SDS011;16600;47.444;8.334;2023-02-28T12:07:07;10.95;;;9.80;;
29688;SDS011;16600;47.444;8.334;2023-02-28T12:12:15;12.15;;;10.77;;
29688;SDS011;16600;47.444;8.334;2023-02-28T12:25:02;13.55;;;9.52;;
29688;SDS011;16600;47.444;8.334;2023-02-28T12:27:37;12.55;;;10.18;;
29688;SDS011;16600;47.444;8.334;2023-02-28T12:32:32;13.05;;;11.05;;
29688;SDS011;16600;47.444;8.334;2023-02-28T12:35:04;12.00;;;10.75;;
29688;SDS011;16600;47.444;8.334;2023-02-28T12:37:41;13.80;;;11.05;;
29688;SDS011;16600;47.444;8.334;2023-02-28T12:40:13;13.10;;;11.10;;
29688;SDS011;16600;47.444;8.334;2023-02-28T12:43:15;15.80;;;10.13;;
29688;SDS011;16600;47.444;8.334;2023-02-28T12:45:39;16.80;;;10.43;;
29688;SDS011;16600;47.444;8.334;2023-02-28T12:48:08;12.48;;;10.95;;
29688;SDS011;16600;47.444;8.334;2023-02-28T12:50:35;13.82;;;11.50;;
29688;SDS011;16600;47.444;8.334;2023-02-28T12:53:09;18.83;;;11.63;;
29688;SDS011;16600;47.444;8.334;2023-02-28T12:55:45;14.68;;;11.10;;
29688;SDS011;16600;47.444;8.334;2023-02-28T12:58:28;15.80;;;11.52;;
29688;SDS011;16600;47.444;8.334;2023-02-28T13:02:01;15.73;;;12.07;;
29688;SDS011;16600;47.444;8.334;2023-02-28T13:04:01;12.85;;;10.88;;
29688;SDS011;16600;47.444;8.334;2023-02-28T13:11:31;11.85;;;10.43;;
29688;SDS011;16600;47.444;8.334;2023-02-28T13:14:04;12.68;;;11.15;;
29688;SDS011;16600;47.444;8.334;2023-02-28T13:19:16;14.75;;;11.23;;
29688;SDS011;16600;47.444;8.334;2023-02-28T13:21:43;13.02;;;10.75;;
29688;SDS011;16600;47.444;8.334;2023-02-28T13:24:10;12.60;;;11.30;;
29688;SDS011;16600;47.444;8.334;2023-02-28T13:31:31;13.13;;;10.85;;
29688;SDS011;16600;47.444;8.334;2023-02-28T13:34:12;14.85;;;11.07;;
29688;SDS011;16600;47.444;8.334;2023-02-28T13:36:38;15.38;;;11.73;;
29688;SDS011;16600;47.444;8.334;2023-02-28T13:39:45;13.75;;;11.20;;
29688;SDS011;16600;47.444;8.334;2023-02-28T13:41:56;14.02;;;11.07;;
29688;SDS011;16600;47.444;8.334;2023-02-28T13:44:22;12.90;;;11.60;;
29688;SDS011;16600;47.444;8.334;2023-02-28T13:52:07;16.60;;;12.55;;
29688;SDS011;16600;47.444;8.334;2023-02-28T13:54:53;18.75;;;12.80;;
29688;SDS011;16600;47.444;8.334;2023-02-28T14:07:49;14.48;;;12.85;;
29688;SDS011;16600;47.444;8.334;2023-02-28T14:10:26;12.77;;;11.55;;
29688;SDS011;16600;47.444;8.334;2023-02-28T14:12:55;13.10;;;11.77;;
29688;SDS011;16600;47.444;8.334;2023-02-28T14:17:51;14.10;;;11.80;;
29688;SDS011;16600;47.444;8.334;2023-02-28T14:20:20;19.23;;;12.65;;
29688;SDS011;16600;47.444;8.334;2023-02-28T14:22:53;13.48;;;12.18;;
29688;SDS011;16600;47.444;8.334;2023-02-28T14:33:00;16.13;;;12.93;;
29688;SDS011;16600;47.444;8.334;2023-02-28T14:35:42;14.10;;;12.53;;
29688;SDS011;16600;47.444;8.334;2023-02-28T14:38:19;15.30;;;12.98;;
29688;SDS011;16600;47.444;8.334;2023-02-28T14:40:47;16.45;;;12.95;;
29688;SDS011;16600;47.444;8.334;2023-02-28T14:43:32;15.43;;;13.45;;
29688;SDS011;16600;47.444;8.334;2023-02-28T14:46:02;16.15;;;13.50;;
29688;SDS011;16600;47.444;8.334;2023-02-28T14:48:30;14.40;;;12.88;;
29688;SDS011;16600;47.444;8.334;2023-02-28T14:50:59;15.73;;;14.10;;
29688;SDS011;16600;47.444;8.334;2023-02-28T14:53:27;18.90;;;13.73;;
29688;SDS011;16600;47.444;8.334;2023-02-28T14:55:54;16.25;;;14.30;;
29688;SDS011;16600;47.444;8.334;2023-02-28T14:58:22;15.80;;;14.15;;
29688;SDS011;16600;47.444;8.334;2023-02-28T15:00:50;17.92;;;14.27;;
29688;SDS011;16600;47.444;8.334;2023-02-28T15:03:20;15.52;;;13.90;;
29688;SDS011;16600;47.444;8.334;2023-02-28T15:05:51;17.65;;;14.25;;
29688;SDS011;16600;47.444;8.334;2023-02-28T15:08:18;18.05;;;14.38;;
29688;SDS011;16600;47.444;8.334;2023-02-28T15:13:17;16.90;;;14.02;;
29688;SDS011;16600;47.444;8.334;2023-02-28T15:15:48;17.30;;;14.80;;
29688;SDS011;16600;47.444;8.334;2023-02-28T15:18:22;18.08;;;14.98;;
29688;SDS011;16600;47.444;8.334;2023-02-28T15:20:49;17.70;;;14.63;;
29688;SDS011;16600;47.444;8.334;2023-02-28T15:23:17;15.35;;;13.75;;
29688;SDS011;16600;47.444;8.334;2023-02-28T15:25:44;17.70;;;15.18;;
29688;SDS011;16600;47.444;8.334;2023-02-28T15:28:18;16.40;;;14.75;;
29688;SDS011;16600;47.444;8.334;2023-02-28T15:30:55;21.23;;;15.40;;
29688;SDS011;16600;47.444;8.334;2023-02-28T15:33:26;18.60;;;15.75;;
29688;SDS011;16600;47.444;8.334;2023-02-28T15:36:03;19.10;;;15.73;;
29688;SDS011;16600;47.444;8.334;2023-02-28T15:38:29;19.70;;;15.13;;
29688;SDS011;16600;47.444;8.334;2023-02-28T15:41:02;23.83;;;15.80;;
29688;SDS011;16600;47.444;8.334;2023-02-28T15:43:35;27.35;;;15.75;;
29688;SDS011;16600;47.444;8.334;2023-02-28T15:46:05;20.13;;;15.50;;
29688;SDS011;16600;47.444;8.334;2023-02-28T15:48:34;18.70;;;14.77;;
29688;SDS011;16600;47.444;8.334;2023-02-28T15:51:09;17.77;;;15.25;;
29688;SDS011;16600;47.444;8.334;2023-02-28T15:53:59;17.77;;;15.70;;
29688;SDS011;16600;47.444;8.334;2023-02-28T15:56:27;18.02;;;16.08;;
29688;SDS011;16600;47.444;8.334;2023-02-28T15:58:54;20.23;;;15.75;;
29688;SDS011;16600;47.444;8.334;2023-02-28T16:01:24;21.65;;;17.20;;
29688;SDS011;16600;47.444;8.334;2023-02-28T16:03:51;21.75;;;15.40;;
29688;SDS011;16600;47.444;8.334;2023-02-28T16:08:48;19.63;;;15.80;;
29688;SDS011;16600;47.444;8.334;2023-02-28T16:11:17;18.70;;;16.70;;
29688;SDS011;16600;47.444;8.334;2023-02-28T16:13:43;18.08;;;16.10;;
29688;SDS011;16600;47.444;8.334;2023-02-28T16:16:14;17.92;;;15.50;;
29688;SDS011;16600;47.444;8.334;2023-02-28T16:18:40;23.00;;;16.75;;
29688;SDS011;16600;47.444;8.334;2023-02-28T16:21:08;17.88;;;15.90;;
29688;SDS011;16600;47.444;8.334;2023-02-28T16:23:34;20.23;;;16.40;;
29688;SDS011;16600;47.444;8.334;2023-02-28T16:26:00;27.08;;;16.35;;
29688;SDS011;16600;47.444;8.334;2023-02-28T16:28:31;19.73;;;16.75;;
29688;SDS011;16600;47.444;8.334;2023-02-28T16:31:04;25.38;;;17.40;;
29688;SDS011;16600;47.444;8.334;2023-02-28T16:33:31;19.38;;;16.63;;
29688;SDS011;16600;47.444;8.334;2023-02-28T16:35:57;21.40;;;16.25;;
29688;SDS011;16600;47.444;8.334;2023-02-28T16:38:23;18.65;;;15.98;;
29688;SDS011;16600;47.444;8.334;2023-02-28T16:40:50;19.48;;;17.15;;
29688;SDS011;16600;47.444;8.334;2023-02-28T16:43:18;18.13;;;15.80;;
29688;SDS011;16600;47.444;8.334;2023-02-28T16:45:46;19.27;;;17.10;;
29688;SDS011;16600;47.444;8.334;2023-02-28T16:48:14;20.80;;;16.88;;
29688;SDS011;16600;47.444;8.334;2023-02-28T16:50:40;21.60;;;17.05;;
29688;SDS011;16600;47.444;8.334;2023-02-28T16:53:10;19.05;;;16.42;;
29688;SDS011;16600;47.444;8.334;2023-02-28T16:55:36;21.95;;;17.88;;
29688;SDS011;16600;47.444;8.334;2023-02-28T16:58:02;18.67;;;16.75;;
29688;SDS011;16600;47.444;8.334;2023-02-28T17:03:04;21.40;;;18.63;;
29688;SDS011;16600;47.444;8.334;2023-02-28T17:05:35;20.45;;;18.25;;
29688;SDS011;16600;47.444;8.334;2023-02-28T17:08:05;23.17;;;17.63;;
29688;SDS011;16600;47.444;8.334;2023-02-28T17:10:31;26.42;;;19.85;;
29688;SDS011;16600;47.444;8.334;2023-02-28T17:12:57;20.85;;;18.55;;